sensor_id;sensor_type;location;lat;lon;timestamp;P1;durP1;ratioP1;P2;durP2;ratioP2
69410;SDS011;56604;48.652;9.194;2023-08-17T00:00:46;18.67;;;11.03;;
69410;SDS011;56604;48.652;9.194;2023-08-17T00:03:11;12.77;;;10.83;;
69410;SDS011;56604;48.652;9.194;2023-08-17T00:05:37;14.83;;;11.30;;
69410;SDS011;56604;48.652;9.194;2023-08-17T00:08:02;13.37;;;11.10;;
69410;SDS011;56604;48.652;9.194;2023-08-17T00:10:28;14.90;;;11.33;;
69410;SDS011;56604;48.652;9.194;2023-08-17T00:12:54;22.90;;;11.03;;
69410;SDS011;56604;48.652;9.194;2023-08-17T00:15:19;15.17;;;11.57;;
69410;SDS011;56604;48.652;9.194;2023-08-17T00:17:44;14.47;;;11.03;;
69410;SDS011;56604;48.652;9.194;2023-08-17T00:20:10;13.70;;;10.60;;
69410;SDS011;56604;48.652;9.194;2023-08-17T00:22:35;15.00;;;11.00;;
69410;SDS011;56604;48.652;9.194;2023-08-17T00:25:01;15.30;;;11.20;;
69410;SDS011;56604;48.652;9.194;2023-08-17T00:27:29;18.10;;;11.37;;
69410;SDS011;56604;48.652;9.194;2023-08-17T00:29:56;16.77;;;11.20;;
69410;SDS011;56604;48.652;9.194;2023-08-17T00:32:22;13.20;;;11.10;;
69410;SDS011;56604;48.652;9.194;2023-08-17T00:34:47;15.40;;;10.77;;
69410;SDS011;56604;48.652;9.194;2023-08-17T00:37:12;17.80;;;12.47;;
69410;SDS011;56604;48.652;9.194;2023-08-17T00:39:38;17.87;;;12.17;;
69410;SDS011;56604;48.652;9.194;2023-08-17T00:42:03;19.87;;;12.13;;
69410;SDS011;56604;48.652;9.194;2023-08-17T00:44:29;14.67;;;11.50;;
69410;SDS011;56604;48.652;9.194;2023-08-17T00:46:54;21.87;;;13.20;;
69410;SDS011;56604;48.652;9.194;2023-08-17T00:49:20;18.93;;;13.40;;
69410;SDS011;56604;48.652;9.194;2023-08-17T00:51:45;13.83;;;11.40;;
69410;SDS011;56604;48.652;9.194;2023-08-17T00:54:11;17.33;;;11.67;;
69410;SDS011;56604;48.652;9.194;2023-08-17T00:56:37;14.97;;;12.40;;
69410;SDS011;56604;48.652;9.194;2023-08-17T00:59:02;19.63;;;11.00;;
69410;SDS011;56604;48.652;9.194;2023-08-17T01:01:30;13.03;;;11.33;;
69410;SDS011;56604;48.652;9.194;2023-08-17T01:03:57;16.07;;;10.67;;
69410;SDS011;56604;48.652;9.194;2023-08-17T01:06:22;18.30;;;12.90;;
69410;SDS011;56604;48.652;9.194;2023-08-17T01:08:47;11.57;;;10.47;;
69410;SDS011;56604;48.652;9.194;2023-08-17T01:13:55;21.83;;;12.90;;
69410;SDS011;56604;48.652;9.194;2023-08-17T01:16:29;15.67;;;12.50;;
69410;SDS011;56604;48.652;9.194;2023-08-17T01:19:10;17.93;;;12.80;;
69410;SDS011;56604;48.652;9.194;2023-08-17T01:21:42;28.70;;;13.87;;
69410;SDS011;56604;48.652;9.194;2023-08-17T01:24:13;19.63;;;13.03;;
69410;SDS011;56604;48.652;9.194;2023-08-17T01:26:39;14.33;;;12.57;;
69410;SDS011;56604;48.652;9.194;2023-08-17T01:29:04;16.73;;;13.80;;
69410;SDS011;56604;48.652;9.194;2023-08-17T01:31:52;19.00;;;13.83;;
69410;SDS011;56604;48.652;9.194;2023-08-17T01:34:32;19.10;;;14.33;;
69410;SDS011;56604;48.652;9.194;2023-08-17T01:37:02;14.70;;;12.37;;
69410;SDS011;56604;48.652;9.194;2023-08-17T01:39:37;17.13;;;13.87;;
69410;SDS011;56604;48.652;9.194;2023-08-17T01:42:04;22.27;;;14.00;;
69410;SDS011;56604;48.652;9.194;2023-08-17T01:44:31;20.80;;;13.40;;
69410;SDS011;56604;48.652;9.194;2023-08-17T01:46:57;19.77;;;13.80;;
69410;SDS011;56604;48.652;9.194;2023-08-17T01:49:22;24.70;;;14.67;;
69410;SDS011;56604;48.652;9.194;2023-08-17T01:51:49;18.40;;;13.90;;
69410;SDS011;56604;48.652;9.194;2023-08-17T01:54:15;23.33;;;14.37;;
69410;SDS011;56604;48.652;9.194;2023-08-17T01:56:40;19.07;;;14.27;;
69410;SDS011;56604;48.652;9.194;2023-08-17T01:59:05;19.47;;;13.87;;
69410;SDS011;56604;48.652;9.194;2023-08-17T02:01:30;18.07;;;13.27;;
69410;SDS011;56604;48.652;9.194;2023-08-17T02:03:56;18.50;;;13.90;;
69410;SDS011;56604;48.652;9.194;2023-08-17T02:06:21;20.53;;;13.93;;
69410;SDS011;56604;48.652;9.194;2023-08-17T02:08:46;19.80;;;15.30;;
69410;SDS011;56604;48.652;9.194;2023-08-17T02:11:12;20.50;;;14.60;;
69410;SDS011;56604;48.652;9.194;2023-08-17T02:13:37;24.90;;;16.47;;
69410;SDS011;56604;48.652;9.194;2023-08-17T02:16:05;24.40;;;17.10;;
69410;SDS011;56604;48.652;9.194;2023-08-17T02:18:31;26.13;;;18.30;;
69410;SDS011;56604;48.652;9.194;2023-08-17T02:20:58;29.50;;;19.00;;
69410;SDS011;56604;48.652;9.194;2023-08-17T02:23:23;27.93;;;18.90;;
69410;SDS011;56604;48.652;9.194;2023-08-17T02:25:49;24.03;;;17.23;;
69410;SDS011;56604;48.652;9.194;2023-08-17T02:28:14;33.90;;;20.93;;
69410;SDS011;56604;48.652;9.194;2023-08-17T02:30:41;40.00;;;21.57;;
69410;SDS011;56604;48.652;9.194;2023-08-17T02:33:06;44.60;;;24.03;;
69410;SDS011;56604;48.652;9.194;2023-08-17T02:35:31;47.13;;;24.60;;
69410;SDS011;56604;48.652;9.194;2023-08-17T02:37:57;58.70;;;27.37;;
69410;SDS011;56604;48.652;9.194;2023-08-17T02:40:22;60.53;;;26.23;;
69410;SDS011;56604;48.652;9.194;2023-08-17T02:42:47;67.33;;;27.37;;
69410;SDS011;56604;48.652;9.194;2023-08-17T02:45:13;86.90;;;28.47;;
69410;SDS011;56604;48.652;9.194;2023-08-17T02:47:38;76.63;;;29.20;;
69410;SDS011;56604;48.652;9.194;2023-08-17T02:50:04;75.13;;;29.00;;
69410;SDS011;56604;48.652;9.194;2023-08-17T02:52:29;95.17;;;28.80;;
69410;SDS011;56604;48.652;9.194;2023-08-17T02:54:55;57.90;;;27.33;;
69410;SDS011;56604;48.652;9.194;2023-08-17T02:57:21;99.80;;;30.47;;
69410;SDS011;56604;48.652;9.194;2023-08-17T02:59:46;57.63;;;26.77;;
69410;SDS011;56604;48.652;9.194;2023-08-17T03:02:12;72.83;;;27.93;;
69410;SDS011;56604;48.652;9.194;2023-08-17T03:04:37;129.27;;;30.47;;
69410;SDS011;56604;48.652;9.194;2023-08-17T03:07:02;64.10;;;29.07;;
69410;SDS011;56604;48.652;9.194;2023-08-17T03:09:27;75.50;;;29.00;;
69410;SDS011;56604;48.652;9.194;2023-08-17T03:11:53;62.67;;;29.50;;
69410;SDS011;56604;48.652;9.194;2023-08-17T03:14:18;62.87;;;29.07;;
69410;SDS011;56604;48.652;9.194;2023-08-17T03:16:44;166.30;;;30.33;;
69410;SDS011;56604;48.652;9.194;2023-08-17T03:19:09;68.57;;;29.90;;
69410;SDS011;56604;48.652;9.194;2023-08-17T03:21:36;63.60;;;27.67;;
69410;SDS011;56604;48.652;9.194;2023-08-17T03:24:01;86.27;;;28.10;;
69410;SDS011;56604;48.652;9.194;2023-08-17T03:26:27;64.90;;;28.70;;
69410;SDS011;56604;48.652;9.194;2023-08-17T03:28:52;68.87;;;29.73;;
69410;SDS011;56604;48.652;9.194;2023-08-17T03:31:19;43.10;;;23.90;;
69410;SDS011;56604;48.652;9.194;2023-08-17T03:33:46;56.00;;;28.70;;
69410;SDS011;56604;48.652;9.194;2023-08-17T03:36:11;53.77;;;28.20;;
69410;SDS011;56604;48.652;9.194;2023-08-17T03:38:36;58.73;;;27.43;;
69410;SDS011;56604;48.652;9.194;2023-08-17T03:41:04;54.50;;;26.77;;
69410;SDS011;56604;48.652;9.194;2023-08-17T03:43:30;98.13;;;27.83;;
69410;SDS011;56604;48.652;9.194;2023-08-17T03:45:55;49.67;;;24.87;;
69410;SDS011;56604;48.652;9.194;2023-08-17T03:48:21;86.67;;;26.87;;
69410;SDS011;56604;48.652;9.194;2023-08-17T03:50:50;45.87;;;24.17;;
69410;SDS011;56604;48.652;9.194;2023-08-17T03:53:16;58.27;;;25.57;;
69410;SDS011;56604;48.652;9.194;2023-08-17T03:55:50;67.70;;;26.20;;
69410;SDS011;56604;48.652;9.194;2023-08-17T03:58:17;64.93;;;24.00;;
69410;SDS011;56604;48.652;9.194;2023-08-17T04:00:48;46.47;;;22.70;;
69410;SDS011;56604;48.652;9.194;2023-08-17T04:03:14;45.70;;;23.10;;
69410;SDS011;56604;48.652;9.194;2023-08-17T04:05:39;77.63;;;23.70;;
69410;SDS011;56604;48.652;9.194;2023-08-17T04:08:05;83.43;;;23.00;;
69410;SDS011;56604;48.652;9.194;2023-08-17T04:10:30;52.57;;;21.97;;
69410;SDS011;56604;48.652;9.194;2023-08-17T04:12:57;164.00;;;23.97;;
69410;SDS011;56604;48.652;9.194;2023-08-17T04:15:22;57.97;;;21.87;;
69410;SDS011;56604;48.652;9.194;2023-08-17T04:17:48;96.30;;;20.60;;
69410;SDS011;56604;48.652;9.194;2023-08-17T04:20:13;52.23;;;20.33;;
69410;SDS011;56604;48.652;9.194;2023-08-17T04:22:39;66.90;;;22.97;;
69410;SDS011;56604;48.652;9.194;2023-08-17T04:25:05;45.23;;;21.93;;
69410;SDS011;56604;48.652;9.194;2023-08-17T04:27:33;58.13;;;20.70;;
69410;SDS011;56604;48.652;9.194;2023-08-17T04:29:59;59.93;;;21.87;;
69410;SDS011;56604;48.652;9.194;2023-08-17T04:32:25;64.23;;;21.50;;
69410;SDS011;56604;48.652;9.194;2023-08-17T04:34:51;69.40;;;21.63;;
69410;SDS011;56604;48.652;9.194;2023-08-17T04:37:16;59.93;;;20.77;;
69410;SDS011;56604;48.652;9.194;2023-08-17T04:39:41;46.30;;;20.70;;
69410;SDS011;56604;48.652;9.194;2023-08-17T04:42:08;45.13;;;18.70;;
69410;SDS011;56604;48.652;9.194;2023-08-17T04:44:34;57.90;;;18.50;;
69410;SDS011;56604;48.652;9.194;2023-08-17T04:46:59;56.70;;;21.63;;
69410;SDS011;56604;48.652;9.194;2023-08-17T04:49:26;31.97;;;19.60;;
69410;SDS011;56604;48.652;9.194;2023-08-17T04:51:52;49.13;;;20.10;;
69410;SDS011;56604;48.652;9.194;2023-08-17T04:54:17;47.63;;;18.57;;
69410;SDS011;56604;48.652;9.194;2023-08-17T04:56:42;86.23;;;20.77;;
69410;SDS011;56604;48.652;9.194;2023-08-17T04:59:08;45.77;;;17.70;;
69410;SDS011;56604;48.652;9.194;2023-08-17T05:01:33;31.97;;;16.80;;
69410;SDS011;56604;48.652;9.194;2023-08-17T05:03:59;54.40;;;17.70;;
69410;SDS011;56604;48.652;9.194;2023-08-17T05:06:24;51.57;;;16.20;;
69410;SDS011;56604;48.652;9.194;2023-08-17T05:08:52;27.60;;;16.50;;
69410;SDS011;56604;48.652;9.194;2023-08-17T05:11:17;38.10;;;16.47;;
69410;SDS011;56604;48.652;9.194;2023-08-17T05:13:43;36.07;;;17.00;;
69410;SDS011;56604;48.652;9.194;2023-08-17T05:16:08;41.83;;;15.63;;
69410;SDS011;56604;48.652;9.194;2023-08-17T05:18:34;23.10;;;14.60;;
69410;SDS011;56604;48.652;9.194;2023-08-17T05:20:59;88.00;;;17.00;;
69410;SDS011;56604;48.652;9.194;2023-08-17T05:23:25;35.57;;;15.50;;
69410;SDS011;56604;48.652;9.194;2023-08-17T05:25:51;17.50;;;13.60;;
69410;SDS011;56604;48.652;9.194;2023-08-17T05:28:17;40.83;;;14.63;;
69410;SDS011;56604;48.652;9.194;2023-08-17T05:30:43;23.20;;;13.93;;
69410;SDS011;56604;48.652;9.194;2023-08-17T05:33:08;43.93;;;15.60;;
69410;SDS011;56604;48.652;9.194;2023-08-17T05:35:35;37.90;;;15.30;;
69410;SDS011;56604;48.652;9.194;2023-08-17T05:38:01;32.87;;;14.60;;
69410;SDS011;56604;48.652;9.194;2023-08-17T05:40:26;17.63;;;12.13;;
69410;SDS011;56604;48.652;9.194;2023-08-17T05:42:55;23.10;;;14.63;;
69410;SDS011;56604;48.652;9.194;2023-08-17T05:45:20;31.60;;;15.90;;
69410;SDS011;56604;48.652;9.194;2023-08-17T05:47:45;19.80;;;13.80;;
69410;SDS011;56604;48.652;9.194;2023-08-17T05:50:10;39.97;;;15.23;;
69410;SDS011;56604;48.652;9.194;2023-08-17T05:52:36;43.10;;;13.87;;
69410;SDS011;56604;48.652;9.194;2023-08-17T05:55:01;37.13;;;13.47;;
69410;SDS011;56604;48.652;9.194;2023-08-17T05:57:27;29.83;;;13.37;;
69410;SDS011;56604;48.652;9.194;2023-08-17T05:59:52;22.20;;;13.70;;
69410;SDS011;56604;48.652;9.194;2023-08-17T06:02:19;20.50;;;13.30;;
69410;SDS011;56604;48.652;9.194;2023-08-17T06:04:44;19.67;;;14.07;;
69410;SDS011;56604;48.652;9.194;2023-08-17T06:07:10;21.97;;;13.53;;
69410;SDS011;56604;48.652;9.194;2023-08-17T06:09:35;21.33;;;14.40;;
69410;SDS011;56604;48.652;9.194;2023-08-17T06:12:00;19.40;;;13.40;;
69410;SDS011;56604;48.652;9.194;2023-08-17T06:14:25;17.13;;;11.67;;
69410;SDS011;56604;48.652;9.194;2023-08-17T06:16:51;19.60;;;12.07;;
69410;SDS011;56604;48.652;9.194;2023-08-17T06:19:16;19.13;;;12.93;;
69410;SDS011;56604;48.652;9.194;2023-08-17T06:21:41;23.77;;;11.97;;
69410;SDS011;56604;48.652;9.194;2023-08-17T06:24:07;27.23;;;14.23;;
69410;SDS011;56604;48.652;9.194;2023-08-17T06:26:32;28.07;;;13.23;;
69410;SDS011;56604;48.652;9.194;2023-08-17T06:28:57;21.80;;;12.53;;
69410;SDS011;56604;48.652;9.194;2023-08-17T06:31:22;14.87;;;12.10;;
69410;SDS011;56604;48.652;9.194;2023-08-17T06:33:53;15.07;;;10.93;;
69410;SDS011;56604;48.652;9.194;2023-08-17T06:36:19;18.57;;;11.10;;
69410;SDS011;56604;48.652;9.194;2023-08-17T06:38:45;19.20;;;11.90;;
69410;SDS011;56604;48.652;9.194;2023-08-17T06:41:10;19.70;;;12.00;;
69410;SDS011;56604;48.652;9.194;2023-08-17T06:43:36;14.83;;;11.83;;
69410;SDS011;56604;48.652;9.194;2023-08-17T06:46:02;14.90;;;11.17;;
69410;SDS011;56604;48.652;9.194;2023-08-17T06:48:27;13.90;;;11.00;;
69410;SDS011;56604;48.652;9.194;2023-08-17T06:50:53;15.80;;;12.17;;
69410;SDS011;56604;48.652;9.194;2023-08-17T06:53:18;54.87;;;13.50;;
69410;SDS011;56604;48.652;9.194;2023-08-17T06:55:44;22.17;;;13.60;;
69410;SDS011;56604;48.652;9.194;2023-08-17T06:58:09;46.93;;;13.50;;
69410;SDS011;56604;48.652;9.194;2023-08-17T07:00:35;13.50;;;11.43;;
69410;SDS011;56604;48.652;9.194;2023-08-17T07:03:00;16.10;;;11.70;;
69410;SDS011;56604;48.652;9.194;2023-08-17T07:05:26;41.07;;;13.13;;
69410;SDS011;56604;48.652;9.194;2023-08-17T07:07:52;19.70;;;13.10;;
69410;SDS011;56604;48.652;9.194;2023-08-17T07:10:18;37.50;;;13.47;;
69410;SDS011;56604;48.652;9.194;2023-08-17T07:12:43;26.40;;;13.67;;
69410;SDS011;56604;48.652;9.194;2023-08-17T07:15:09;18.73;;;12.77;;
69410;SDS011;56604;48.652;9.194;2023-08-17T07:17:35;20.60;;;12.70;;
69410;SDS011;56604;48.652;9.194;2023-08-17T07:20:02;25.53;;;13.53;;
69410;SDS011;56604;48.652;9.194;2023-08-17T07:22:28;16.30;;;14.37;;
69410;SDS011;56604;48.652;9.194;2023-08-17T07:24:53;20.40;;;12.80;;
69410;SDS011;56604;48.652;9.194;2023-08-17T07:27:19;18.37;;;12.30;;
69410;SDS011;56604;48.652;9.194;2023-08-17T07:29:44;15.23;;;11.70;;
69410;SDS011;56604;48.652;9.194;2023-08-17T07:32:10;16.13;;;12.00;;
69410;SDS011;56604;48.652;9.194;2023-08-17T07:34:36;13.63;;;11.10;;
69410;SDS011;56604;48.652;9.194;2023-08-17T07:37:03;13.57;;;10.33;;
69410;SDS011;56604;48.652;9.194;2023-08-17T07:39:29;13.70;;;11.20;;
69410;SDS011;56604;48.652;9.194;2023-08-17T07:41:55;12.17;;;10.00;;
69410;SDS011;56604;48.652;9.194;2023-08-17T07:44:20;11.33;;;10.13;;
69410;SDS011;56604;48.652;9.194;2023-08-17T07:46:45;11.03;;;9.57;;
69410;SDS011;56604;48.652;9.194;2023-08-17T07:49:11;10.60;;;9.50;;
69410;SDS011;56604;48.652;9.194;2023-08-17T07:51:36;10.43;;;9.23;;
69410;SDS011;56604;48.652;9.194;2023-08-17T07:54:01;11.40;;;10.20;;
69410;SDS011;56604;48.652;9.194;2023-08-17T07:56:27;9.57;;;8.50;;
69410;SDS011;56604;48.652;9.194;2023-08-17T07:58:54;14.33;;;8.20;;
69410;SDS011;56604;48.652;9.194;2023-08-17T08:01:19;12.13;;;9.23;;
69410;SDS011;56604;48.652;9.194;2023-08-17T08:03:45;18.33;;;8.63;;
69410;SDS011;56604;48.652;9.194;2023-08-17T08:06:12;13.90;;;9.57;;
69410;SDS011;56604;48.652;9.194;2023-08-17T08:08:38;12.47;;;8.70;;
69410;SDS011;56604;48.652;9.194;2023-08-17T08:11:03;8.77;;;7.83;;
69410;SDS011;56604;48.652;9.194;2023-08-17T08:13:29;8.73;;;7.93;;
69410;SDS011;56604;48.652;9.194;2023-08-17T08:15:55;9.03;;;7.50;;
69410;SDS011;56604;48.652;9.194;2023-08-17T08:18:21;8.27;;;7.27;;
69410;SDS011;56604;48.652;9.194;2023-08-17T08:20:47;11.33;;;6.87;;
69410;SDS011;56604;48.652;9.194;2023-08-17T08:23:13;15.83;;;6.47;;
69410;SDS011;56604;48.652;9.194;2023-08-17T08:25:40;13.00;;;6.57;;
69410;SDS011;56604;48.652;9.194;2023-08-17T08:28:06;5.90;;;5.40;;
69410;SDS011;56604;48.652;9.194;2023-08-17T08:30:31;6.10;;;5.60;;
69410;SDS011;56604;48.652;9.194;2023-08-17T08:32:57;6.83;;;6.23;;
69410;SDS011;56604;48.652;9.194;2023-08-17T08:35:23;7.57;;;6.87;;
69410;SDS011;56604;48.652;9.194;2023-08-17T08:37:50;6.00;;;5.50;;
69410;SDS011;56604;48.652;9.194;2023-08-17T08:40:16;19.27;;;6.80;;
69410;SDS011;56604;48.652;9.194;2023-08-17T08:42:42;18.10;;;6.20;;
69410;SDS011;56604;48.652;9.194;2023-08-17T08:45:07;10.90;;;5.37;;
69410;SDS011;56604;48.652;9.194;2023-08-17T08:47:34;8.10;;;6.17;;
69410;SDS011;56604;48.652;9.194;2023-08-17T08:50:01;7.20;;;5.87;;
69410;SDS011;56604;48.652;9.194;2023-08-17T08:52:35;6.30;;;5.70;;
69410;SDS011;56604;48.652;9.194;2023-08-17T08:55:12;6.40;;;5.80;;
69410;SDS011;56604;48.652;9.194;2023-08-17T08:57:42;6.00;;;5.00;;
69410;SDS011;56604;48.652;9.194;2023-08-17T09:00:11;5.30;;;4.90;;
69410;SDS011;56604;48.652;9.194;2023-08-17T09:02:37;4.43;;;4.20;;
69410;SDS011;56604;48.652;9.194;2023-08-17T09:05:04;5.43;;;4.50;;
69410;SDS011;56604;48.652;9.194;2023-08-17T09:07:31;6.25;;;5.05;;
69410;SDS011;56604;48.652;9.194;2023-08-17T09:09:57;5.63;;;5.13;;
69410;SDS011;56604;48.652;9.194;2023-08-17T09:12:24;7.70;;;5.13;;
69410;SDS011;56604;48.652;9.194;2023-08-17T09:14:49;5.30;;;4.90;;
69410;SDS011;56604;48.652;9.194;2023-08-17T09:17:25;5.43;;;5.03;;
69410;SDS011;56604;48.652;9.194;2023-08-17T09:19:51;5.07;;;4.77;;
69410;SDS011;56604;48.652;9.194;2023-08-17T09:22:23;4.83;;;4.53;;
69410;SDS011;56604;48.652;9.194;2023-08-17T09:25:01;5.18;;;4.80;;
69410;SDS011;56604;48.652;9.194;2023-08-17T09:27:26;5.15;;;4.65;;
69410;SDS011;56604;48.652;9.194;2023-08-17T09:29:52;5.63;;;5.22;;
69410;SDS011;56604;48.652;9.194;2023-08-17T09:32:17;19.02;;;5.45;;
69410;SDS011;56604;48.652;9.194;2023-08-17T09:34:43;5.10;;;4.57;;
69410;SDS011;56604;48.652;9.194;2023-08-17T09:37:09;6.43;;;4.40;;
69410;SDS011;56604;48.652;9.194;2023-08-17T09:39:38;4.95;;;3.85;;
69410;SDS011;56604;48.652;9.194;2023-08-17T09:42:03;4.45;;;4.10;;
69410;SDS011;56604;48.652;9.194;2023-08-17T09:44:28;4.93;;;4.60;;
69410;SDS011;56604;48.652;9.194;2023-08-17T09:46:57;4.30;;;4.10;;
69410;SDS011;56604;48.652;9.194;2023-08-17T09:49:23;4.73;;;3.87;;
69410;SDS011;56604;48.652;9.194;2023-08-17T09:51:49;3.60;;;3.50;;
69410;SDS011;56604;48.652;9.194;2023-08-17T09:54:21;3.50;;;3.40;;
69410;SDS011;56604;48.652;9.194;2023-08-17T09:56:53;4.72;;;4.32;;
69410;SDS011;56604;48.652;9.194;2023-08-17T09:59:19;3.28;;;3.17;;
69410;SDS011;56604;48.652;9.194;2023-08-17T10:01:48;3.40;;;3.13;;
69410;SDS011;56604;48.652;9.194;2023-08-17T10:04:20;3.83;;;3.63;;
69410;SDS011;56604;48.652;9.194;2023-08-17T10:07:08;3.80;;;3.50;;
69410;SDS011;56604;48.652;9.194;2023-08-17T10:09:36;4.10;;;3.80;;
69410;SDS011;56604;48.652;9.194;2023-08-17T10:12:10;4.97;;;3.58;;
69410;SDS011;56604;48.652;9.194;2023-08-17T10:14:42;7.20;;;3.70;;
69410;SDS011;56604;48.652;9.194;2023-08-17T10:17:19;3.60;;;3.40;;
69410;SDS011;56604;48.652;9.194;2023-08-17T10:19:54;3.03;;;2.92;;
69410;SDS011;56604;48.652;9.194;2023-08-17T10:22:27;3.70;;;3.50;;
69410;SDS011;56604;48.652;9.194;2023-08-17T10:24:54;4.35;;;3.95;;
69410;SDS011;56604;48.652;9.194;2023-08-17T10:27:22;4.03;;;3.83;;
69410;SDS011;56604;48.652;9.194;2023-08-17T10:29:48;4.35;;;4.05;;
69410;SDS011;56604;48.652;9.194;2023-08-17T10:32:16;4.10;;;3.70;;
69410;SDS011;56604;48.652;9.194;2023-08-17T10:34:41;6.57;;;3.75;;
69410;SDS011;56604;48.652;9.194;2023-08-17T10:37:07;3.97;;;3.70;;
69410;SDS011;56604;48.652;9.194;2023-08-17T10:39:34;4.10;;;3.80;;
69410;SDS011;56604;48.652;9.194;2023-08-17T10:42:02;12.65;;;5.07;;
69410;SDS011;56604;48.652;9.194;2023-08-17T10:47:19;4.77;;;4.20;;
69410;SDS011;56604;48.652;9.194;2023-08-17T10:49:47;4.60;;;3.83;;
69410;SDS011;56604;48.652;9.194;2023-08-17T10:52:24;7.70;;;4.33;;
69410;SDS011;56604;48.652;9.194;2023-08-17T10:54:52;3.97;;;3.78;;
69410;SDS011;56604;48.652;9.194;2023-08-17T10:57:27;5.23;;;4.40;;
69410;SDS011;56604;48.652;9.194;2023-08-17T11:02:40;4.50;;;4.10;;
69410;SDS011;56604;48.652;9.194;2023-08-17T11:05:08;4.43;;;4.07;;
69410;SDS011;56604;48.652;9.194;2023-08-17T11:07:40;6.67;;;4.47;;
69410;SDS011;56604;48.652;9.194;2023-08-17T11:10:26;3.70;;;3.50;;
69410;SDS011;56604;48.652;9.194;2023-08-17T11:12:54;4.30;;;3.90;;
69410;SDS011;56604;48.652;9.194;2023-08-17T11:15:25;4.50;;;4.20;;
69410;SDS011;56604;48.652;9.194;2023-08-17T11:17:51;4.00;;;3.80;;
69410;SDS011;56604;48.652;9.194;2023-08-17T11:20:17;4.30;;;4.00;;
69410;SDS011;56604;48.652;9.194;2023-08-17T11:22:43;4.23;;;4.03;;
69410;SDS011;56604;48.652;9.194;2023-08-17T11:25:09;4.20;;;4.00;;
69410;SDS011;56604;48.652;9.194;2023-08-17T11:27:35;5.93;;;4.60;;
69410;SDS011;56604;48.652;9.194;2023-08-17T11:30:01;18.10;;;4.47;;
69410;SDS011;56604;48.652;9.194;2023-08-17T11:32:27;4.93;;;4.33;;
69410;SDS011;56604;48.652;9.194;2023-08-17T11:34:54;4.50;;;4.20;;
69410;SDS011;56604;48.652;9.194;2023-08-17T11:37:20;4.30;;;3.90;;
69410;SDS011;56604;48.652;9.194;2023-08-17T11:39:46;5.80;;;4.30;;
69410;SDS011;56604;48.652;9.194;2023-08-17T11:42:11;5.43;;;4.53;;
69410;SDS011;56604;48.652;9.194;2023-08-17T11:44:37;9.40;;;4.67;;
69410;SDS011;56604;48.652;9.194;2023-08-17T11:47:03;4.43;;;4.10;;
69410;SDS011;56604;48.652;9.194;2023-08-17T11:49:30;5.03;;;4.30;;
69410;SDS011;56604;48.652;9.194;2023-08-17T11:51:55;6.13;;;4.77;;
69410;SDS011;56604;48.652;9.194;2023-08-17T11:54:22;6.00;;;4.57;;
69410;SDS011;56604;48.652;9.194;2023-08-17T11:56:47;5.40;;;4.60;;
69410;SDS011;56604;48.652;9.194;2023-08-17T11:59:13;5.10;;;4.80;;
69410;SDS011;56604;48.652;9.194;2023-08-17T12:01:39;6.37;;;4.60;;
69410;SDS011;56604;48.652;9.194;2023-08-17T12:04:05;5.27;;;4.87;;
69410;SDS011;56604;48.652;9.194;2023-08-17T12:06:32;6.30;;;5.30;;
69410;SDS011;56604;48.652;9.194;2023-08-17T12:08:59;5.83;;;4.57;;
69410;SDS011;56604;48.652;9.194;2023-08-17T12:11:25;5.97;;;5.50;;
69410;SDS011;56604;48.652;9.194;2023-08-17T12:13:50;4.77;;;4.43;;
69410;SDS011;56604;48.652;9.194;2023-08-17T12:16:16;4.97;;;4.43;;
69410;SDS011;56604;48.652;9.194;2023-08-17T12:18:52;8.10;;;5.10;;
69410;SDS011;56604;48.652;9.194;2023-08-17T12:21:21;5.03;;;4.53;;
69410;SDS011;56604;48.652;9.194;2023-08-17T12:23:49;5.37;;;4.87;;
69410;SDS011;56604;48.652;9.194;2023-08-17T12:26:24;5.93;;;4.87;;
69410;SDS011;56604;48.652;9.194;2023-08-17T12:28:49;5.13;;;4.77;;
69410;SDS011;56604;48.652;9.194;2023-08-17T12:31:20;5.30;;;4.80;;
69410;SDS011;56604;48.652;9.194;2023-08-17T12:33:47;5.40;;;4.90;;
69410;SDS011;56604;48.652;9.194;2023-08-17T12:36:12;5.70;;;5.20;;
69410;SDS011;56604;48.652;9.194;2023-08-17T12:38:37;5.70;;;5.30;;
69410;SDS011;56604;48.652;9.194;2023-08-17T12:41:07;5.20;;;4.83;;
69410;SDS011;56604;48.652;9.194;2023-08-17T12:43:32;6.10;;;5.60;;
69410;SDS011;56604;48.652;9.194;2023-08-17T12:45:58;7.10;;;5.53;;
69410;SDS011;56604;48.652;9.194;2023-08-17T12:48:23;5.70;;;5.30;;
69410;SDS011;56604;48.652;9.194;2023-08-17T12:50:48;5.93;;;4.73;;
69410;SDS011;56604;48.652;9.194;2023-08-17T12:53:13;5.83;;;4.70;;
69410;SDS011;56604;48.652;9.194;2023-08-17T12:55:39;6.40;;;5.50;;
69410;SDS011;56604;48.652;9.194;2023-08-17T12:58:07;6.40;;;5.40;;
69410;SDS011;56604;48.652;9.194;2023-08-17T13:00:34;6.43;;;5.83;;
69410;SDS011;56604;48.652;9.194;2023-08-17T13:03:00;6.50;;;5.90;;
69410;SDS011;56604;48.652;9.194;2023-08-17T13:05:25;9.00;;;5.83;;
69410;SDS011;56604;48.652;9.194;2023-08-17T13:07:51;7.00;;;6.47;;
69410;SDS011;56604;48.652;9.194;2023-08-17T13:10:16;8.33;;;6.00;;
69410;SDS011;56604;48.652;9.194;2023-08-17T13:12:41;11.13;;;6.83;;
69410;SDS011;56604;48.652;9.194;2023-08-17T13:15:07;7.37;;;6.60;;
69410;SDS011;56604;48.652;9.194;2023-08-17T13:17:32;7.07;;;6.47;;
69410;SDS011;56604;48.652;9.194;2023-08-17T13:19:58;11.90;;;6.10;;
69410;SDS011;56604;48.652;9.194;2023-08-17T13:22:23;7.40;;;6.20;;
69410;SDS011;56604;48.652;9.194;2023-08-17T13:24:48;8.67;;;6.60;;
69410;SDS011;56604;48.652;9.194;2023-08-17T13:27:13;6.57;;;5.90;;
69410;SDS011;56604;48.652;9.194;2023-08-17T13:29:39;6.63;;;5.80;;
69410;SDS011;56604;48.652;9.194;2023-08-17T13:32:05;9.03;;;6.10;;
69410;SDS011;56604;48.652;9.194;2023-08-17T13:34:30;11.33;;;5.53;;
69410;SDS011;56604;48.652;9.194;2023-08-17T13:36:55;8.47;;;6.60;;
69410;SDS011;56604;48.652;9.194;2023-08-17T13:39:21;6.80;;;6.20;;
69410;SDS011;56604;48.652;9.194;2023-08-17T13:41:46;6.93;;;6.20;;
69410;SDS011;56604;48.652;9.194;2023-08-17T13:44:11;6.77;;;6.17;;
69410;SDS011;56604;48.652;9.194;2023-08-17T13:46:37;9.33;;;6.57;;
69410;SDS011;56604;48.652;9.194;2023-08-17T13:49:03;7.10;;;6.20;;
69410;SDS011;56604;48.652;9.194;2023-08-17T13:51:28;9.70;;;6.90;;
69410;SDS011;56604;48.652;9.194;2023-08-17T13:53:54;6.93;;;6.30;;
69410;SDS011;56604;48.652;9.194;2023-08-17T13:56:19;9.83;;;7.20;;
69410;SDS011;56604;48.652;9.194;2023-08-17T13:58:46;7.90;;;7.10;;
69410;SDS011;56604;48.652;9.194;2023-08-17T14:01:11;8.50;;;6.90;;
69410;SDS011;56604;48.652;9.194;2023-08-17T14:03:36;11.20;;;7.63;;
69410;SDS011;56604;48.652;9.194;2023-08-17T14:06:02;14.03;;;7.40;;
69410;SDS011;56604;48.652;9.194;2023-08-17T14:08:27;10.20;;;8.53;;
69410;SDS011;56604;48.652;9.194;2023-08-17T14:10:53;10.60;;;7.67;;
69410;SDS011;56604;48.652;9.194;2023-08-17T14:13:18;12.80;;;8.10;;
69410;SDS011;56604;48.652;9.194;2023-08-17T14:15:43;9.03;;;8.27;;
69410;SDS011;56604;48.652;9.194;2023-08-17T14:18:09;12.07;;;7.30;;
69410;SDS011;56604;48.652;9.194;2023-08-17T14:20:34;9.10;;;8.20;;
69410;SDS011;56604;48.652;9.194;2023-08-17T14:22:59;13.13;;;8.73;;
69410;SDS011;56604;48.652;9.194;2023-08-17T14:25:24;15.00;;;9.77;;
69410;SDS011;56604;48.652;9.194;2023-08-17T14:27:50;17.93;;;9.33;;
69410;SDS011;56604;48.652;9.194;2023-08-17T14:30:15;12.10;;;8.77;;
69410;SDS011;56604;48.652;9.194;2023-08-17T14:32:40;14.17;;;8.37;;
69410;SDS011;56604;48.652;9.194;2023-08-17T14:35:06;11.20;;;9.30;;
69410;SDS011;56604;48.652;9.194;2023-08-17T14:37:31;22.40;;;9.50;;